Time;durP1;ratioP1;P1;durP2;ratioP2;P2;SDS_P1;SDS_P2;PMS_P1;PMS_P2;Temp;Humidity;BMP_temperature;BMP_pressure;BME280_temperature;BME280_humidity;BME280_pressure;Samples;Min_cycle;Max_cycle;Signal;HPM_P1;HPM_P2
2021/11/30 00:01:46;;;;;;;1999.90;999.90;;;;;;;-2.41;60.97;100382.19;4865084;28;97693;-74
2021/11/30 00:04:16;;;;;;;1999.90;999.90;;;;;;;-2.42;60.67;100381.31;4879476;28;99517;-73
2021/11/30 00:06:45;;;;;;;1999.90;999.90;;;;;;;-2.45;60.79;100369.75;4898567;28;97956;-72
2021/11/30 00:10:43;;;;;;;1999.90;999.90;;;;;;;-2.46;61.66;100374.09;4888743;28;98140;-73
2021/11/30 00:12:12;;;;;;;1999.90;999.90;;;;;;;-2.46;61.10;100367.97;4881226;28;97359;-74
2021/11/30 00:14:41;;;;;;;1999.90;999.90;;;;;;;-2.48;61.35;100360.06;4881302;28;100070;-73
2021/11/30 00:17:11;;;;;;;1999.90;999.90;;;;;;;-2.49;60.69;100363.44;4897926;28;96980;-75
2021/11/30 00:19:40;;;;;;;1999.90;999.90;;;;;;;-2.52;60.90;100360.66;4898947;28;97088;-73
2021/11/30 00:22:10;;;;;;;1999.90;999.90;;;;;;;-2.55;61.62;100357.84;4899030;28;97627;-74
2021/11/30 00:24:39;;;;;;;1999.90;999.90;;;;;;;-2.61;61.35;100354.84;4881809;28;99625;-73
2021/11/30 00:27:12;;;;;;;1999.90;999.90;;;;;;;-2.64;61.70;100352.03;4898694;28;98862;-73
2021/11/30 00:29:40;;;;;;;1999.90;999.90;;;;;;;-2.63;61.54;100356.44;4882647;28;98470;-73
2021/11/30 00:32:09;;;;;;;1999.90;999.90;;;;;;;-2.62;61.37;100354.75;4883056;28;99698;-73
2021/11/30 00:34:37;;;;;;;1999.90;999.90;;;;;;;-2.64;60.94;100346.84;4882889;28;100585;-72
2021/11/30 00:37:05;;;;;;;1999.90;999.90;;;;;;;-2.65;61.20;100349.31;4897812;28;99984;-72
2021/11/30 00:39:33;;;;;;;1999.90;999.90;;;;;;;-2.67;61.12;100336.19;4881656;28;97901;-75
2021/11/30 00:42:04;;;;;;;1999.90;999.90;;;;;;;-2.67;60.92;100341.41;4880294;28;98129;-75
2021/11/30 00:44:35;;;;;;;1999.90;999.90;;;;;;;-2.67;60.95;100332.72;4897696;28;97735;-73
2021/11/30 00:47:04;;;;;;;1999.90;999.90;;;;;;;-2.69;61.04;100331.72;4899978;28;97752;-75
2021/11/30 00:49:33;;;;;;;1999.90;999.90;;;;;;;-2.67;60.63;100335.31;4899729;28;97157;-75
2021/11/30 00:52:01;;;;;;;1999.90;999.90;;;;;;;-2.64;60.70;100325.09;4882646;28;97697;-72
2021/11/30 00:54:30;;;;;;;1999.90;999.90;;;;;;;-2.65;60.79;100323.28;4889675;28;99843;-74
2021/11/30 00:56:59;;;;;;;1999.90;999.90;;;;;;;-2.65;60.81;100312.84;4899583;28;97872;-73
2021/11/30 00:59:29;;;;;;;1999.90;999.90;;;;;;;-2.66;61.28;100308.47;4880310;28;97874;-74
2021/11/30 01:01:58;;;;;;;1999.90;999.90;;;;;;;-2.64;60.60;100309.47;4896008;28;97020;-74
2021/11/30 01:04:27;;;;;;;1999.90;999.90;;;;;;;-2.65;60.87;100303.34;4882134;28;100736;-73
2021/11/30 01:06:56;;;;;;;1999.90;999.90;;;;;;;-2.62;60.88;100297.47;4896198;28;99253;-74
2021/11/30 01:09:24;;;;;;;1999.90;999.90;;;;;;;-2.63;61.02;100296.53;4897701;28;98008;-74
2021/11/30 01:11:53;;;;;;;1999.90;999.90;;;;;;;-2.61;60.52;100294.94;4880411;28;98638;-72
2021/11/30 01:14:22;;;;;;;1999.90;999.90;;;;;;;-2.60;61.08;100288.91;4896797;28;97764;-73
2021/11/30 01:16:52;;;;;;;1999.90;999.90;;;;;;;-2.55;60.81;100286.63;4898156;28;99554;-73
2021/11/30 01:19:20;;;;;;;1999.90;999.90;;;;;;;-2.54;60.62;100291.03;4896644;28;99715;-74
2021/11/30 01:21:49;;;;;;;1999.90;999.90;;;;;;;-2.55;60.71;100279.72;4895506;28;97928;-74
2021/11/30 01:24:17;;;;;;;1999.90;999.90;;;;;;;-2.55;60.77;100277.13;4873510;28;99370;-74
2021/11/30 01:26:45;;;;;;;1999.90;999.90;;;;;;;-2.54;61.10;100275.41;4879673;28;100678;-74
2021/11/30 01:29:13;;;;;;;1999.90;999.90;;;;;;;-2.56;60.59;100267.50;4879351;28;97431;-74
2021/11/30 01:31:41;;;;;;;1999.90;999.90;;;;;;;-2.55;60.58;100269.31;4879431;28;97479;-73
2021/11/30 01:34:11;;;;;;;1999.90;999.90;;;;;;;-2.57;60.59;100265.72;4896698;28;97845;-74
2021/11/30 01:36:39;;;;;;;1999.90;999.90;;;;;;;-2.59;60.50;100266.41;4896239;28;99043;-73
2021/11/30 01:39:08;;;;;;;1999.90;999.90;;;;;;;-2.59;60.24;100256.88;4884052;28;96905;-72
2021/11/30 01:41:38;;;;;;;1999.90;999.90;;;;;;;-2.57;60.22;100262.19;4896717;28;96952;-73
2021/11/30 01:44:11;;;;;;;1999.90;999.90;;;;;;;-2.56;60.64;100238.84;4878957;28;99398;-74
2021/11/30 01:46:54;;;;;;;1999.90;999.90;;;;;;;-2.51;60.26;100234.81;4878407;28;99799;-74
2021/11/30 01:49:34;;;;;;;1999.90;999.90;;;;;;;-2.50;60.50;100240.94;4899225;28;98923;-72
2021/11/30 01:52:02;;;;;;;1999.90;999.90;;;;;;;-2.56;60.25;100231.03;4890554;28;98888;-72
2021/11/30 01:54:30;;;;;;;1999.90;999.90;;;;;;;-2.55;60.48;100237.16;4883343;28;99229;-73
2021/11/30 01:56:59;;;;;;;1999.90;999.90;;;;;;;-2.57;59.94;100225.72;4901853;28;97805;-73
2021/11/30 01:59:27;;;;;;;1999.90;999.90;;;;;;;-2.60;59.88;100223.81;4881585;28;101416;-74
2021/11/30 02:01:55;;;;;;;1999.90;999.90;;;;;;;-2.61;59.92;100219.44;4883470;28;97107;-73
2021/11/30 02:04:25;;;;;;;1999.90;999.90;;;;;;;-2.62;60.69;100207.22;4883713;28;98744;-73
2021/11/30 02:06:53;;;;;;;1999.90;999.90;;;;;;;-2.63;59.83;100208.00;4899074;28;97256;-73
2021/11/30 02:09:21;;;;;;;1999.90;999.90;;;;;;;-2.64;60.67;100206.22;4881533;28;97974;-75
2021/11/30 02:11:51;;;;;;;1999.90;999.90;;;;;;;-2.61;59.92;100214.22;4900109;28;98160;-75
2021/11/30 02:14:19;;;;;;;1999.90;999.90;;;;;;;-2.61;60.30;100203.81;4900530;28;98807;-74
2021/11/30 02:16:48;;;;;;;1999.90;999.90;;;;;;;-2.58;60.13;100200.50;4900623;28;97850;-74
2021/11/30 02:19:16;;;;;;;1999.90;999.90;;;;;;;-2.57;59.73;100191.88;4884621;28;97452;-74
2021/11/30 02:21:46;;;;;;;1999.90;999.90;;;;;;;-2.62;59.70;100183.78;4901683;28;97724;-74
2021/11/30 02:24:14;;;;;;;1999.90;999.90;;;;;;;-2.67;59.80;100169.56;4899974;28;98190;-74
2021/11/30 02:26:42;;;;;;;1999.90;999.90;;;;;;;-2.69;60.04;100176.38;4889026;28;100944;-73
2021/11/30 02:29:11;;;;;;;1999.90;999.90;;;;;;;-2.67;59.71;100158.25;4905148;28;97531;-72
2021/11/30 02:31:46;;;;;;;1999.90;999.90;;;;;;;-2.67;59.59;100163.47;4895572;28;98048;-73
2021/11/30 02:34:14;;;;;;;1999.90;999.90;;;;;;;-2.64;59.84;100161.06;4908888;28;99286;-75
2021/11/30 02:36:51;;;;;;;1999.90;999.90;;;;;;;-2.64;59.30;100148.94;4911916;28;96877;-75
2021/11/30 02:39:23;;;;;;;1999.90;999.90;;;;;;;-2.65;59.78;100147.13;4909560;28;97415;-76
2021/11/30 02:41:52;;;;;;;1999.90;999.90;;;;;;;-2.62;59.63;100144.72;4903748;28;97091;-76
2021/11/30 02:44:22;;;;;;;1999.90;999.90;;;;;;;-2.62;59.75;100144.72;4889761;28;99273;-75
2021/11/30 02:46:52;;;;;;;1999.90;999.90;;;;;;;-2.58;59.87;100131.06;4886829;28;97682;-74
2021/11/30 02:49:22;;;;;;;1999.90;999.90;;;;;;;-2.55;59.85;100127.78;4899899;28;96907;-75
2021/11/30 02:51:54;;;;;;;1999.90;999.90;;;;;;;-2.54;59.72;100117.44;4884567;28;97419;-74
2021/11/30 02:54:24;;;;;;;1999.90;999.90;;;;;;;-2.52;59.65;100110.63;4883146;28;99771;-74
2021/11/30 02:56:54;;;;;;;1999.90;999.90;;;;;;;-2.51;59.96;100107.22;4892751;28;99537;-75
2021/11/30 02:59:23;;;;;;;1999.90;999.90;;;;;;;-2.50;59.30;100103.81;4898708;28;97985;-73
2021/11/30 03:01:53;;;;;;;1999.90;999.90;;;;;;;-2.49;59.76;100097.78;4898691;28;96982;-77
2021/11/30 03:04:22;;;;;;;1999.90;999.90;;;;;;;-2.49;59.19;100084.75;4898846;28;99274;-74
2021/11/30 03:06:50;;;;;;;1999.90;999.90;;;;;;;-2.48;59.79;100085.66;4900394;28;97893;-76
2021/11/30 03:09:18;;;;;;;1999.90;999.90;;;;;;;-2.48;59.52;100073.56;4890210;28;97017;-73
2021/11/30 03:11:48;;;;;;;1999.90;999.90;;;;;;;-2.47;59.18;100070.13;4897983;28;96973;-73
2021/11/30 03:14:16;;;;;;;1999.90;999.90;;;;;;;-2.45;59.96;100071.13;4897492;28;97986;-72
2021/11/30 03:16:46;;;;;;;1999.90;999.90;;;;;;;-2.47;59.70;100069.25;4901335;28;99833;-73
2021/11/30 03:19:15;;;;;;;1999.90;999.90;;;;;;;-2.48;59.08;100070.03;4882563;28;97142;-72
2021/11/30 03:21:44;;;;;;;1999.90;999.90;;;;;;;-2.48;59.60;100072.66;4900519;28;97422;-73
2021/11/30 03:24:12;;;;;;;1999.90;999.90;;;;;;;-2.49;59.43;100074.34;4879113;28;100596;-74
2021/11/30 03:26:40;;;;;;;1999.90;999.90;;;;;;;-2.50;59.28;100072.56;4880203;28;101717;-72
2021/11/30 03:29:10;;;;;;;1999.90;999.90;;;;;;;-2.50;59.37;100064.75;4899864;28;98052;-72
2021/11/30 03:31:48;;;;;;;1999.90;999.90;;;;;;;-2.51;59.37;100068.13;4884089;28;97812;-74
2021/11/30 03:34:18;;;;;;;1999.90;999.90;;;;;;;-2.52;59.66;100050.72;4877839;28;100224;-73
2021/11/30 03:36:48;;;;;;;1999.90;999.90;;;;;;;-2.50;59.97;100041.31;4885410;28;98981;-74
2021/11/30 03:39:18;;;;;;;1999.90;999.90;;;;;;;-2.49;59.86;100035.28;4900292;28;98172;-75
2021/11/30 03:41:48;;;;;;;1999.90;999.90;;;;;;;-2.47;59.72;100011.97;4898763;28;97849;-75
2021/11/30 03:44:19;;;;;;;1999.90;999.90;;;;;;;-2.48;59.64;100015.34;4882476;28;98192;-73
2021/11/30 03:46:47;;;;;;;1999.90;999.90;;;;;;;-2.48;59.82;100003.25;4885697;28;98105;-73
2021/11/30 03:49:16;;;;;;;1999.90;999.90;;;;;;;-2.46;59.11;99991.22;4882768;28;97249;-73
2021/11/30 03:51:46;;;;;;;1999.90;999.90;;;;;;;-2.44;59.14;99988.69;4901263;28;97308;-71
2021/11/30 03:54:14;;;;;;;1999.90;999.90;;;;;;;-2.41;59.10;99991.47;4882198;28;98467;-72
2021/11/30 03:56:43;;;;;;;1999.90;999.90;;;;;;;-2.38;59.38;99979.53;4865564;28;101338;-71
2021/11/30 03:59:12;;;;;;;1999.90;999.90;;;;;;;-2.36;59.61;99970.09;4900854;28;98665;-74
2021/11/30 04:01:42;;;;;;;1999.90;999.90;;;;;;;-2.35;58.97;99966.69;4901114;28;98326;-71
2021/11/30 04:04:21;;;;;;;1999.90;999.90;;;;;;;-2.33;58.95;99985.03;4883893;28;97733;-72
2021/11/30 04:06:50;;;;;;;1999.90;999.90;;;;;;;-2.31;59.25;99967.78;4902274;28;99146;-73
2021/11/30 04:09:18;;;;;;;1999.90;999.90;;;;;;;-2.27;59.31;99972.38;4903396;28;96758;-74
2021/11/30 04:11:48;;;;;;;1999.90;999.90;;;;;;;-2.25;59.63;99957.69;4907076;28;97660;-75
2021/11/30 04:14:16;;;;;;;1999.90;999.90;;;;;;;-2.23;59.06;99946.56;4904577;28;97763;-75
2021/11/30 04:16:46;;;;;;;1999.90;999.90;;;;;;;-2.23;59.14;99940.44;4905760;28;97885;-73
2021/11/30 04:19:15;;;;;;;1999.90;999.90;;;;;;;-2.20;58.74;99941.50;4902062;28;98776;-71
2021/11/30 04:21:43;;;;;;;1999.90;999.90;;;;;;;-2.21;58.69;99937.13;4902830;28;97961;-72
2021/11/30 04:24:11;;;;;;;1999.90;999.90;;;;;;;-2.18;59.19;99934.69;4884165;28;99545;-72
2021/11/30 04:26:39;;;;;;;1999.90;999.90;;;;;;;-2.16;58.83;99930.50;4901322;28;98347;-73
2021/11/30 04:29:08;;;;;;;1999.90;999.90;;;;;;;-2.14;58.87;99922.75;4901058;28;97821;-72
2021/11/30 04:31:37;;;;;;;1999.90;999.90;;;;;;;-2.11;58.93;99910.81;4900517;28;97592;-72
2021/11/30 04:34:06;;;;;;;1999.90;999.90;;;;;;;-2.11;58.98;99910.81;4899531;28;98889;-72
2021/11/30 04:36:35;;;;;;;1999.90;999.90;;;;;;;-2.10;59.49;99907.41;4900228;28;97676;-72
2021/11/30 04:39:05;;;;;;;1999.90;999.90;;;;;;;-2.09;59.18;99890.06;4899564;28;97011;-73
2021/11/30 04:41:34;;;;;;;1999.90;999.90;;;;;;;-2.10;59.11;99878.75;4897881;28;97313;-72
2021/11/30 04:44:03;;;;;;;1999.90;999.90;;;;;;;-2.09;58.69;99877.91;4898706;28;97653;-75
2021/11/30 04:46:40;;;;;;;1999.90;999.90;;;;;;;-2.10;58.98;99862.19;4901729;28;99016;-73
2021/11/30 04:49:16;;;;;;;1999.90;999.90;;;;;;;-2.11;59.37;99861.28;4869855;28;97701;-74
2021/11/30 04:51:45;;;;;;;1999.90;999.90;;;;;;;-2.11;59.37;99852.59;4899517;28;96890;-74
2021/11/30 04:54:13;;;;;;;1999.90;999.90;;;;;;;-2.13;59.35;99847.31;4880998;28;97688;-74
2021/11/30 04:56:41;;;;;;;1999.90;999.90;;;;;;;-2.13;59.44;99842.09;4882355;28;101874;-73
2021/11/30 04:59:09;;;;;;;1999.90;999.90;;;;;;;-2.13;59.64;99833.38;4899013;28;98145;-74
2021/11/30 05:01:37;;;;;;;1999.90;999.90;;;;;;;-2.09;59.16;99817.09;4895940;28;98690;-74
2021/11/30 05:04:06;;;;;;;1999.90;999.90;;;;;;;-2.09;59.39;99814.50;4896310;28;97914;-73
2021/11/30 05:06:35;;;;;;;1999.90;999.90;;;;;;;-2.08;59.54;99800.66;4896959;28;99185;-73
2021/11/30 05:09:05;;;;;;;1999.90;999.90;;;;;;;-2.07;59.26;99790.31;4879340;28;97991;-72
2021/11/30 05:11:33;;;;;;;1999.90;999.90;;;;;;;-2.06;59.13;99773.88;4881690;28;97552;-74
2021/11/30 05:14:01;;;;;;;1999.90;999.90;;;;;;;-2.05;59.54;99766.94;4897623;28;98349;-73
2021/11/30 05:16:30;;;;;;;1999.90;999.90;;;;;;;-2.06;59.61;99776.47;4880833;28;98549;-75
2021/11/30 05:18:58;;;;;;;1999.90;999.90;;;;;;;-2.04;60.03;99755.72;4898488;28;97833;-74
2021/11/30 05:21:27;;;;;;;1999.90;999.90;;;;;;;-2.09;60.29;99749.34;4899881;28;97595;-73
2021/11/30 05:24:01;;;;;;;1999.90;999.90;;;;;;;-2.06;59.51;99742.59;4897639;28;99471;-77
2021/11/30 05:26:30;;;;;;;1999.90;999.90;;;;;;;-2.07;59.92;99732.09;4874656;28;100660;-72
2021/11/30 05:28:58;;;;;;;1999.90;999.90;;;;;;;-2.04;59.78;99730.56;4898694;28;97020;-74
2021/11/30 05:31:26;;;;;;;1999.90;999.90;;;;;;;-2.00;59.25;99715.97;4896339;28;97003;-72
2021/11/30 05:33:55;;;;;;;1999.90;999.90;;;;;;;-2.00;59.57;99715.97;4897773;28;99802;-74
2021/11/30 05:36:23;;;;;;;1999.90;999.90;;;;;;;-2.00;59.38;99705.53;4882304;28;100564;-74
2021/11/30 05:38:51;;;;;;;1999.90;999.90;;;;;;;-1.98;59.44;99696.97;4897475;28;97167;-74
2021/11/30 05:41:21;;;;;;;1999.90;999.90;;;;;;;-1.98;59.76;99691.75;4880065;28;97030;-75
2021/11/30 05:43:49;;;;;;;1999.90;999.90;;;;;;;-1.97;59.98;99680.53;4894173;28;97716;-73
2021/11/30 05:46:18;;;;;;;1999.90;999.90;;;;;;;-1.93;59.62;99672.06;4879222;28;97287;-70
2021/11/30 05:48:47;;;;;;;1999.90;999.90;;;;;;;-1.91;58.98;99654.78;4887833;28;97786;-71
2021/11/30 05:51:15;;;;;;;1999.90;999.90;;;;;;;-1.91;59.71;99652.16;4879481;28;96973;-71
2021/11/30 05:53:43;;;;;;;1999.90;999.90;;;;;;;-1.88;58.98;99677.50;4895465;28;97489;-70
2021/11/30 05:56:12;;;;;;;1999.90;999.90;;;;;;;-1.86;58.88;99653.31;4881206;28;99692;-71
2021/11/30 05:58:44;;;;;;;1999.90;999.90;;;;;;;-1.85;59.57;99652.50;4896409;28;98202;-72
2021/11/30 06:01:20;;;;;;;1999.90;999.90;;;;;;;-1.82;58.83;99634.41;4897333;28;98133;-70
2021/11/30 06:03:59;;;;;;;1999.90;999.90;;;;;;;-1.78;59.30;99616.31;4896000;28;98354;-73
2021/11/30 06:06:29;;;;;;;1999.90;999.90;;;;;;;-1.79;59.15;99618.03;4897785;28;98016;-71
2021/11/30 06:08:58;;;;;;;1999.90;999.90;;;;;;;-1.76;58.82;99606.88;4896441;28;99122;-71
2021/11/30 06:11:26;;;;;;;1999.90;999.90;;;;;;;-1.78;59.83;99613.72;4895708;28;97394;-70
2021/11/30 06:13:59;;;;;;;1999.90;999.90;;;;;;;-1.75;59.58;99606.03;4895130;28;97697;-72
2021/11/30 06:16:27;;;;;;;1999.90;999.90;;;;;;;-1.71;59.30;99595.84;4895878;28;99113;-74
2021/11/30 06:18:56;;;;;;;1999.90;999.90;;;;;;;-1.72;59.25;99587.97;4892283;28;99124;-72
2021/11/30 06:21:24;;;;;;;1999.90;999.90;;;;;;;-1.69;58.93;99593.31;4888315;28;98149;-71
2021/11/30 06:23:53;;;;;;;1999.90;999.90;;;;;;;-1.68;58.75;99580.34;4893499;28;98011;-71
2021/11/30 06:26:21;;;;;;;1999.90;999.90;;;;;;;-1.67;59.10;99568.22;4893810;28;98554;-74
2021/11/30 06:28:49;;;;;;;1999.90;999.90;;;;;;;-1.68;58.45;99564.72;4897551;28;97761;-72
2021/11/30 06:31:19;;;;;;;1999.90;999.90;;;;;;;-1.69;58.33;99573.38;4896756;28;98131;-72
2021/11/30 06:33:47;;;;;;;1999.90;999.90;;;;;;;-1.66;58.21;99555.25;4883137;28;98856;-73
2021/11/30 06:36:15;;;;;;;1999.90;999.90;;;;;;;-1.64;58.22;99544.91;4903000;28;97281;-72
2021/11/30 06:38:44;;;;;;;1999.90;999.90;;;;;;;-1.61;58.78;99547.66;4903899;28;97291;-74
2021/11/30 06:41:12;;;;;;;1999.90;999.90;;;;;;;-1.59;58.42;99520.84;4903122;28;96980;-72
2021/11/30 06:43:40;;;;;;;1999.90;999.90;;;;;;;-1.56;58.55;99533.13;4902536;28;96815;-72
2021/11/30 06:46:08;;;;;;;1999.90;999.90;;;;;;;-1.53;58.33;99521.16;4904696;28;97943;-74
2021/11/30 06:48:38;;;;;;;1999.90;999.90;;;;;;;-1.53;58.41;99513.31;4900054;28;98024;-71
2021/11/30 06:51:06;;;;;;;1999.90;999.90;;;;;;;-1.47;57.78;99510.13;4902163;28;98391;-72
2021/11/30 06:53:35;;;;;;;1999.90;999.90;;;;;;;-1.47;57.75;99507.50;4901656;28;97881;-72
2021/11/30 06:56:04;;;;;;;1999.90;999.90;;;;;;;-1.47;57.62;99507.50;4900906;28;97607;-72
2021/11/30 06:58:32;;;;;;;1999.90;999.90;;;;;;;-1.45;57.57;99511.09;4900608;28;99595;-71
2021/11/30 07:01:01;;;;;;;1999.90;999.90;;;;;;;-1.44;58.44;99518.97;4879089;28;97927;-72
2021/11/30 07:03:30;;;;;;;1999.90;999.90;;;;;;;-1.45;57.85;99511.97;4878157;28;98182;-74
2021/11/30 07:06:05;;;;;;;1999.90;999.90;;;;;;;-1.44;58.09;99510.25;4901453;28;98121;-70
2021/11/30 07:08:50;;;;;;;1999.90;999.90;;;;;;;-1.42;58.09;99496.47;4901939;28;96932;-71
2021/11/30 07:11:36;;;;;;;1999.90;999.90;;;;;;;-1.46;58.68;99485.81;4902114;28;97508;-70
2021/11/30 07:14:05;;;;;;;1999.90;999.90;;;;;;;-1.45;58.25;99506.75;4897788;28;100042;-69
2021/11/30 07:16:34;;;;;;;1999.90;999.90;;;;;;;-1.43;58.62;99478.16;4893681;28;100847;-73
2021/11/30 07:19:03;;;;;;;1999.90;999.90;;;;;;;-1.43;58.26;99468.59;4895916;28;97008;-71
2021/11/30 07:21:33;;;;;;;1999.90;999.90;;;;;;;-1.43;58.25;99476.41;4896930;28;97386;-72
2021/11/30 07:24:02;;;;;;;1999.90;999.90;;;;;;;-1.41;58.11;99464.34;4882078;28;99366;-72
2021/11/30 07:26:30;;;;;;;1999.90;999.90;;;;;;;-1.39;58.50;99453.97;4896798;28;97609;-71
2021/11/30 07:28:59;;;;;;;1999.90;999.90;;;;;;;-1.37;59.23;99466.28;4901434;28;97662;-75
2021/11/30 07:31:27;;;;;;;1999.90;999.90;;;;;;;-1.34;58.99;99457.72;4886566;28;97621;-73
2021/11/30 07:33:57;;;;;;;1999.90;999.90;;;;;;;-1.32;58.45;99456.94;4900468;28;98624;-71
2021/11/30 07:36:26;;;;;;;1999.90;999.90;;;;;;;-1.31;58.59;99478.72;4899872;28;97870;-71
2021/11/30 07:38:55;;;;;;;1999.90;999.90;;;;;;;-1.29;58.89;99450.97;4898305;28;98188;-74
2021/11/30 07:41:24;;;;;;;1999.90;999.90;;;;;;;-1.26;58.92;99483.31;4899967;28;98075;-72
2021/11/30 07:43:52;;;;;;;1999.90;999.90;;;;;;;-1.26;58.78;99487.66;4900476;28;97960;-73
2021/11/30 07:46:21;;;;;;;1999.90;999.90;;;;;;;-1.18;58.97;99454.97;4899565;28;97872;-72
2021/11/30 07:48:49;;;;;;;1999.90;999.90;;;;;;;-1.14;58.51;99459.53;4883199;28;97279;-76
2021/11/30 07:51:17;;;;;;;1999.90;999.90;;;;;;;-1.17;59.56;99442.00;4900334;28;97092;-75
2021/11/30 07:53:45;;;;;;;1999.90;999.90;;;;;;;-1.11;58.69;99444.00;4900694;28;99552;-73
2021/11/30 07:56:15;;;;;;;1999.90;999.90;;;;;;;-1.08;59.24;99433.69;4882999;28;98936;-75
2021/11/30 07:58:43;;;;;;;1999.90;999.90;;;;;;;-1.05;58.52;99410.34;4899737;28;97843;-72
2021/11/30 08:01:12;;;;;;;1999.90;999.90;;;;;;;-1.02;58.82;99423.53;4901064;28;97695;-74
2021/11/30 08:03:40;;;;;;;1999.90;999.90;;;;;;;-1.03;59.08;99414.81;4899880;28;98105;-75
2021/11/30 08:06:09;;;;;;;1999.90;999.90;;;;;;;-1.02;59.02;99411.38;4900644;28;97897;-73
2021/11/30 08:08:37;;;;;;;1999.90;999.90;;;;;;;-1.00;58.99;99403.63;4899945;28;97866;-75
2021/11/30 08:11:06;;;;;;;1999.90;999.90;;;;;;;-0.99;59.48;99414.13;4899688;28;99083;-71
2021/11/30 08:13:36;;;;;;;1999.90;999.90;;;;;;;-1.01;59.68;99421.00;4896723;28;97028;-74
2021/11/30 08:16:04;;;;;;;1999.90;999.90;;;;;;;-0.97;59.20;99388.97;4888559;28;98595;-72
2021/11/30 08:18:32;;;;;;;1999.90;999.90;;;;;;;-0.97;59.72;99391.59;4887036;28;97320;-72
2021/11/30 08:21:00;;;;;;;1999.90;999.90;;;;;;;-0.93;59.77;99395.22;4896271;28;96862;-72
2021/11/30 08:23:29;;;;;;;1999.90;999.90;;;;;;;-0.89;59.03;99403.28;4903770;28;97710;-75
2021/11/30 08:25:57;;;;;;;1999.90;999.90;;;;;;;-0.86;59.46;99413.84;4905872;28;98788;-72
2021/11/30 08:28:25;;;;;;;1999.90;999.90;;;;;;;-0.83;58.98;99384.38;4904668;28;97679;-72
2021/11/30 08:30:55;;;;;;;1999.90;999.90;;;;;;;-0.81;59.45;99399.28;4892947;28;97849;-71
2021/11/30 08:33:23;;;;;;;1999.90;999.90;;;;;;;-0.78;59.12;99393.31;4906029;28;99162;-71
2021/11/30 08:35:52;;;;;;;1999.90;999.90;;;;;;;-0.81;59.58;99400.97;4884731;28;97015;-75
2021/11/30 08:38:20;;;;;;;1999.90;999.90;;;;;;;-0.77;59.08;99382.03;4889151;28;97166;-75
2021/11/30 08:40:48;;;;;;;1999.90;999.90;;;;;;;-0.74;59.15;99387.41;4905722;28;96975;-73
2021/11/30 08:43:17;;;;;;;1999.90;999.90;;;;;;;-0.74;59.14;99387.41;4887919;28;98941;-72
2021/11/30 08:45:46;;;;;;;1999.90;999.90;;;;;;;-0.78;59.70;99381.13;4904280;28;97239;-71
2021/11/30 08:48:16;;;;;;;1999.90;999.90;;;;;;;-0.73;59.54;99403.94;4905767;28;97230;-74
2021/11/30 08:50:44;;;;;;;1999.90;999.90;;;;;;;-0.74;59.40;99384.78;4889775;28;96822;-71
2021/11/30 08:53:12;;;;;;;1999.90;999.90;;;;;;;-0.71;59.27;99397.06;4904711;28;98325;-73
2021/11/30 08:55:40;;;;;;;1999.90;999.90;;;;;;;-0.69;59.50;99384.97;4888514;28;100852;-71
2021/11/30 08:58:09;;;;;;;1999.90;999.90;;;;;;;-0.68;59.61;99376.31;4904940;28;96906;-71
2021/11/30 09:00:37;;;;;;;1999.90;999.90;;;;;;;-0.70;59.80;99371.00;4882667;28;96981;-74
2021/11/30 09:03:06;;;;;;;1999.90;999.90;;;;;;;-0.70;59.59;99367.53;4889212;28;99326;-76
2021/11/30 09:05:35;;;;;;;1999.90;999.90;;;;;;;-0.66;59.43;99365.09;4904459;28;99196;-76
2021/11/30 09:08:04;;;;;;;1999.90;999.90;;;;;;;-0.65;59.48;99366.91;4905166;28;96845;-74
2021/11/30 09:10:32;;;;;;;1999.90;999.90;;;;;;;-0.64;59.77;99367.75;4905180;28;96876;-72
2021/11/30 09:13:01;;;;;;;1999.90;999.90;;;;;;;-0.62;60.08;99361.78;4870945;28;99793;-72
2021/11/30 09:15:29;;;;;;;1999.90;999.90;;;;;;;-0.58;59.50;99358.50;4887261;28;100021;-71
2021/11/30 09:17:58;;;;;;;1999.90;999.90;;;;;;;-0.54;59.79;99354.28;4887939;28;97623;-70
2021/11/30 09:20:27;;;;;;;1999.90;999.90;;;;;;;-0.54;59.57;99349.06;4887717;28;97875;-71
2021/11/30 09:22:56;;;;;;;1999.90;999.90;;;;;;;-0.54;59.80;99349.97;4886015;28;98131;-72
2021/11/30 09:25:25;;;;;;;1999.90;999.90;;;;;;;-0.48;59.53;99347.59;4892149;28;100480;-72
2021/11/30 09:27:54;;;;;;;1999.90;999.90;;;;;;;-0.47;59.62;99345.88;4899520;28;97649;-71
2021/11/30 09:30:24;;;;;;;1999.90;999.90;;;;;;;-0.48;60.08;99352.81;4903088;28;97501;-73
2021/11/30 09:32:52;;;;;;;1999.90;999.90;;;;;;;-0.46;60.18;99347.63;4885292;28;97732;-74
2021/11/30 09:35:23;;;;;;;1999.90;999.90;;;;;;;-0.46;60.36;99340.69;4885047;28;98239;-75
2021/11/30 09:37:52;;;;;;;1999.90;999.90;;;;;;;-0.47;60.81;99335.41;4896433;28;96999;-72
2021/11/30 09:40:25;;;;;;;1999.90;999.90;;;;;;;-0.45;60.48;99337.28;4905314;28;97356;-72
2021/11/30 09:43:14;;;;;;;1999.90;999.90;;;;;;;-0.42;60.48;99345.22;4903808;28;99054;-72
2021/11/30 09:45:43;;;;;;;1999.90;999.90;;;;;;;-0.42;60.89;99346.94;4887346;28;99735;-71
2021/11/30 09:48:11;;;;;;;1999.90;999.90;;;;;;;-0.41;60.75;99341.78;4887440;28;97260;-71
2021/11/30 09:50:42;;;;;;;1999.90;999.90;;;;;;;-0.41;61.22;99341.78;4870974;28;97550;-71
2021/11/30 09:53:10;;;;;;;1999.90;999.90;;;;;;;-0.43;61.67;99339.94;4903913;28;100390;-70
2021/11/30 09:55:41;;;;;;;1999.90;999.90;;;;;;;-0.42;61.28;99328.66;4887221;28;97973;-72
2021/11/30 09:58:10;;;;;;;1999.90;999.90;;;;;;;-0.39;61.13;99332.28;4887782;28;97661;-72
2021/11/30 10:00:39;;;;;;;1999.90;999.90;;;;;;;-0.46;63.61;99329.34;4904248;28;97175;-77
2021/11/30 10:03:08;;;;;;;1999.90;999.90;;;;;;;-0.48;63.07;99328.44;4903188;28;98530;-74
2021/11/30 10:05:38;;;;;;;1999.90;999.90;;;;;;;-0.42;61.94;99323.44;4894540;28;98586;-71
2021/11/30 10:08:06;;;;;;;1999.90;999.90;;;;;;;-0.43;62.36;99332.13;4905932;28;97499;-72
2021/11/30 10:10:39;;;;;;;1999.90;999.90;;;;;;;-0.45;62.50;99324.22;4907715;28;97480;-71
2021/11/30 10:13:13;;;;;;;1999.90;999.90;;;;;;;-0.45;62.29;99308.53;4908032;28;97876;-70
2021/11/30 10:15:57;;;;;;;1999.90;999.90;;;;;;;-0.47;63.63;99315.41;4898853;28;98459;-70
2021/11/30 10:18:28;;;;;;;1999.90;999.90;;;;;;;-0.49;62.58;99306.63;4901026;28;97519;-70
2021/11/30 10:20:59;;;;;;;1999.90;999.90;;;;;;;-0.51;62.60;99310.91;4891507;28;96795;-71
2021/11/30 10:23:30;;;;;;;1999.90;999.90;;;;;;;-0.50;63.19;99314.41;4906835;28;99013;-72
2021/11/30 10:26:03;;;;;;;1999.90;999.90;;;;;;;-0.51;63.22;99308.28;4890423;28;99446;-71
2021/11/30 10:28:33;;;;;;;1999.90;999.90;;;;;;;-0.46;62.57;99303.22;4908246;28;96753;-71
2021/11/30 10:31:02;;;;;;;1999.90;999.90;;;;;;;-0.44;62.63;99304.19;4916173;28;96729;-73
2021/11/30 10:33:30;;;;;;;1999.90;999.90;;;;;;;-0.40;62.00;99300.88;4895912;28;98945;-72
2021/11/30 10:35:59;;;;;;;1999.90;999.90;;;;;;;-0.37;61.85;99307.13;4901687;28;99146;-73
2021/11/30 10:38:34;;;;;;;1999.90;999.90;;;;;;;-0.36;62.75;99308.00;4918013;28;98975;-74
2021/11/30 10:41:14;;;;;;;1999.90;999.90;;;;;;;-0.33;62.60;99303.81;4918257;28;97046;-71
2021/11/30 10:43:52;;;;;;;1999.90;999.90;;;;;;;-0.35;62.78;99289.78;4897873;28;99693;-73
2021/11/30 10:46:22;;;;;;;1999.90;999.90;;;;;;;-0.33;62.54;99302.91;4903333;28;99701;-75
2021/11/30 10:48:50;;;;;;;1999.90;999.90;;;;;;;-0.29;62.04;99279.59;4911310;28;98034;-74
2021/11/30 10:51:19;;;;;;;1999.90;999.90;;;;;;;-0.25;62.16;99276.28;4895962;28;97025;-72
2021/11/30 10:53:48;;;;;;;1999.90;999.90;;;;;;;-0.22;62.21;99265.03;4891609;28;99601;-72
2021/11/30 10:56:19;;;;;;;1999.90;999.90;;;;;;;-0.20;62.27;99269.50;4889927;28;99693;-71
2021/11/30 10:58:49;;;;;;;1999.90;999.90;;;;;;;-0.15;62.30;99288.84;4907387;28;97087;-74
2021/11/30 11:01:19;;;;;;;1999.90;999.90;;;;;;;-0.13;62.07;99274.13;4905740;28;98046;-70
2021/11/30 11:04:01;;;;;;;1999.90;999.90;;;;;;;-0.08;62.25;99263.84;4906714;28;97773;-71